Time;durP1;ratioP1;P1;durP2;ratioP2;P2;SDS_P1;SDS_P2;PMS_P1;PMS_P2;Temp;Humidity;BMP_temperature;BMP_pressure;BME280_temperature;BME280_humidity;BME280_pressure;Samples;Min_cycle;Max_cycle;Signal;HPM_P1;HPM_P2
2020/12/05 00:00:36;;;;;;;31.73;21.50;;;;;;;;;;5079525;28;20210;-69
2020/12/05 00:03:01;;;;;;;28.53;21.53;;;;;;;;;;5079388;28;20153;-70
2020/12/05 00:05:26;;;;;;;33.23;22.63;;;;;;;;;;5079562;28;20185;-70
2020/12/05 00:07:51;;;;;;;30.93;21.30;;;;;;;;;;5078944;28;20204;-70
2020/12/05 00:10:16;;;;;;;34.13;22.53;;;;;;;;;;5079243;28;20164;-71
2020/12/05 00:12:41;;;;;;;35.30;22.73;;;;;;;;;;5078993;28;20169;-70
2020/12/05 00:15:07;;;;;;;35.33;21.73;;;;;;;;;;5078777;28;20164;-70
2020/12/05 00:17:32;;;;;;;31.67;23.90;;;;;;;;;;5079041;28;20196;-70
2020/12/05 00:19:58;;;;;;;27.83;20.43;;;;;;;;;;5079346;28;20185;-71
2020/12/05 00:22:23;;;;;;;30.57;19.80;;;;;;;;;;5078851;28;20157;-70
2020/12/05 00:24:48;;;;;;;27.70;19.83;;;;;;;;;;5078730;28;20169;-70
2020/12/05 00:27:13;;;;;;;30.30;22.48;;;;;;;;;;5077845;28;20224;-71
2020/12/05 00:29:38;;;;;;;33.40;22.58;;;;;;;;;;5078826;28;20165;-71
2020/12/05 00:32:06;;;;;;;29.70;21.93;;;;;;;;;;5078702;28;20217;-70
2020/12/05 00:34:31;;;;;;;26.67;20.53;;;;;;;;;;5079050;28;20248;-70
2020/12/05 00:36:56;;;;;;;30.73;22.73;;;;;;;;;;5078223;28;20809;-70
2020/12/05 00:39:21;;;;;;;33.35;22.02;;;;;;;;;;5078421;28;20169;-69
2020/12/05 00:41:47;;;;;;;29.10;21.90;;;;;;;;;;5078902;28;20156;-69
2020/12/05 00:44:12;;;;;;;30.27;21.00;;;;;;;;;;5078553;28;20171;-70
2020/12/05 00:46:39;;;;;;;33.23;23.20;;;;;;;;;;5078120;28;20220;-70
2020/12/05 00:49:04;;;;;;;33.03;22.07;;;;;;;;;;5078299;28;20165;-71
2020/12/05 00:51:29;;;;;;;30.30;21.73;;;;;;;;;;5077950;28;20408;-70
2020/12/05 00:53:55;;;;;;;31.93;23.13;;;;;;;;;;5078222;28;20161;-71
2020/12/05 00:56:20;;;;;;;26.60;18.70;;;;;;;;;;5078611;28;20165;-70
2020/12/05 00:58:46;;;;;;;31.17;22.07;;;;;;;;;;5076598;28;20203;-70
2020/12/05 01:01:12;;;;;;;30.83;21.93;;;;;;;;;;5077049;28;20243;-70
2020/12/05 01:03:37;;;;;;;32.57;22.20;;;;;;;;;;5077425;28;20249;-69
2020/12/05 01:06:02;;;;;;;32.53;23.70;;;;;;;;;;5077060;28;20431;-69
2020/12/05 01:08:27;;;;;;;35.47;23.73;;;;;;;;;;5076825;28;20203;-70
2020/12/05 01:10:53;;;;;;;32.20;24.03;;;;;;;;;;5077169;28;20172;-70
2020/12/05 01:13:18;;;;;;;29.67;21.77;;;;;;;;;;5076996;28;20451;-71
2020/12/05 01:15:43;;;;;;;31.50;20.77;;;;;;;;;;5076908;28;20180;-70
2020/12/05 01:18:08;;;;;;;32.80;22.55;;;;;;;;;;5077202;28;20225;-69
2020/12/05 01:20:34;;;;;;;33.17;22.23;;;;;;;;;;5076908;28;20214;-69
2020/12/05 01:22:59;;;;;;;33.80;23.40;;;;;;;;;;5076502;28;20492;-71
2020/12/05 01:25:24;;;;;;;33.63;23.30;;;;;;;;;;5076983;28;20212;-70
2020/12/05 01:27:50;;;;;;;34.10;22.53;;;;;;;;;;5077255;28;20218;-70
2020/12/05 01:30:15;;;;;;;32.17;21.67;;;;;;;;;;5077863;28;20211;-70
2020/12/05 01:32:40;;;;;;;29.67;21.97;;;;;;;;;;5070916;28;20201;-70
2020/12/05 01:35:05;;;;;;;33.13;21.50;;;;;;;;;;5067925;28;20200;-71
2020/12/05 01:37:30;;;;;;;31.60;22.90;;;;;;;;;;5062319;28;20204;-71
2020/12/05 01:39:56;;;;;;;30.07;23.03;;;;;;;;;;5057396;28;20165;-71
2020/12/05 01:42:21;;;;;;;28.40;20.70;;;;;;;;;;5057142;28;20166;-72
2020/12/05 01:44:46;;;;;;;33.80;23.60;;;;;;;;;;5057613;28;20173;-71
2020/12/05 01:47:12;;;;;;;36.90;23.87;;;;;;;;;;5057258;28;20229;-71
2020/12/05 01:49:39;;;;;;;33.53;24.00;;;;;;;;;;5063394;28;20311;-71
2020/12/05 01:52:04;;;;;;;32.27;22.83;;;;;;;;;;5057549;28;20510;-70
2020/12/05 01:54:30;;;;;;;29.80;19.73;;;;;;;;;;5057628;28;20173;-71
2020/12/05 01:56:59;;;;;;;30.67;22.27;;;;;;;;;;5057119;28;20526;-71
2020/12/05 01:59:24;;;;;;;29.60;20.17;;;;;;;;;;5057472;28;20220;-70
2020/12/05 02:01:51;;;;;;;27.37;19.07;;;;;;;;;;5057091;28;20396;-70
2020/12/05 02:04:16;;;;;;;35.80;22.17;;;;;;;;;;5057029;28;20416;-70
2020/12/05 02:06:46;;;;;;;35.77;24.63;;;;;;;;;;5057189;28;20407;-71
2020/12/05 02:09:14;;;;;;;32.73;23.43;;;;;;;;;;5057120;28;20236;-71
2020/12/05 02:11:41;;;;;;;33.43;23.47;;;;;;;;;;5057210;28;20790;-72
2020/12/05 02:14:09;;;;;;;33.33;21.33;;;;;;;;;;5057742;28;20912;-71
2020/12/05 02:16:34;;;;;;;31.00;23.83;;;;;;;;;;5057086;28;20540;-71
2020/12/05 02:19:01;;;;;;;32.43;23.73;;;;;;;;;;5056944;28;20875;-70
2020/12/05 02:21:28;;;;;;;32.80;23.23;;;;;;;;;;5057393;28;20168;-70
2020/12/05 02:23:54;;;;;;;34.43;23.20;;;;;;;;;;5057037;28;20400;-71
2020/12/05 02:26:20;;;;;;;37.63;24.50;;;;;;;;;;5056778;28;20659;-71
2020/12/05 02:28:45;;;;;;;38.10;25.93;;;;;;;;;;5057239;28;20455;-71
2020/12/05 02:31:10;;;;;;;33.10;23.60;;;;;;;;;;5057000;28;20177;-70
2020/12/05 02:33:35;;;;;;;38.63;24.50;;;;;;;;;;5057150;28;20329;-71
2020/12/05 02:36:00;;;;;;;35.50;24.95;;;;;;;;;;5057130;28;20154;-71
2020/12/05 02:38:32;;;;;;;37.70;25.27;;;;;;;;;;5056561;28;20174;-71
2020/12/05 02:40:57;;;;;;;32.27;22.37;;;;;;;;;;5056935;28;20212;-71
2020/12/05 02:43:22;;;;;;;39.33;25.20;;;;;;;;;;5057193;28;20384;-72
2020/12/05 02:45:47;;;;;;;34.57;24.10;;;;;;;;;;5056554;28;20177;-71
2020/12/05 02:48:12;;;;;;;39.63;26.70;;;;;;;;;;5056483;28;20654;-72
2020/12/05 02:50:39;;;;;;;38.90;24.83;;;;;;;;;;5059724;28;20162;-71
2020/12/05 02:53:04;;;;;;;37.00;25.50;;;;;;;;;;5062378;28;20267;-71
2020/12/05 02:55:29;;;;;;;40.00;24.67;;;;;;;;;;5061535;28;20750;-71
2020/12/05 02:57:54;;;;;;;40.53;25.00;;;;;;;;;;5060786;28;20162;-71
2020/12/05 03:00:20;;;;;;;37.27;26.37;;;;;;;;;;5060565;28;20582;-71
2020/12/05 03:02:45;;;;;;;37.70;24.50;;;;;;;;;;5060412;28;20170;-71
2020/12/05 03:05:10;;;;;;;38.20;26.57;;;;;;;;;;5060624;28;20177;-71
2020/12/05 03:07:36;;;;;;;35.70;24.47;;;;;;;;;;5060168;28;20227;-71
2020/12/05 03:10:01;;;;;;;32.30;24.13;;;;;;;;;;5059572;28;20201;-71
2020/12/05 03:12:26;;;;;;;35.97;23.55;;;;;;;;;;5060184;28;20206;-71
2020/12/05 03:14:51;;;;;;;37.43;22.50;;;;;;;;;;5060087;28;20257;-72
2020/12/05 03:17:16;;;;;;;35.10;23.93;;;;;;;;;;5059888;28;20558;-71
2020/12/05 03:19:41;;;;;;;39.70;25.10;;;;;;;;;;5060224;28;20157;-71
2020/12/05 03:22:06;;;;;;;38.63;26.27;;;;;;;;;;5059987;28;20495;-71
2020/12/05 03:24:32;;;;;;;35.13;24.77;;;;;;;;;;5059872;28;20176;-71
2020/12/05 03:26:57;;;;;;;36.33;24.23;;;;;;;;;;5060239;28;20276;-71
2020/12/05 03:29:22;;;;;;;41.40;25.87;;;;;;;;;;5059943;28;20230;-71
2020/12/05 03:31:51;;;;;;;36.40;25.83;;;;;;;;;;5059694;28;20158;-70
2020/12/05 03:34:16;;;;;;;33.33;25.33;;;;;;;;;;5059901;28;20190;-71
2020/12/05 03:36:42;;;;;;;44.53;28.77;;;;;;;;;;5059492;28;20458;-71
2020/12/05 03:39:07;;;;;;;45.13;30.60;;;;;;;;;;5059707;28;20158;-70
2020/12/05 03:41:32;;;;;;;35.40;26.60;;;;;;;;;;5059961;28;20165;-71
2020/12/05 03:43:58;;;;;;;39.30;26.50;;;;;;;;;;5059694;28;20158;-71
2020/12/05 03:46:23;;;;;;;40.80;26.63;;;;;;;;;;5058971;28;20224;-71
2020/12/05 03:48:48;;;;;;;34.07;24.80;;;;;;;;;;5059385;28;20465;-71
2020/12/05 03:51:13;;;;;;;36.40;24.37;;;;;;;;;;5059691;28;20162;-71
2020/12/05 03:53:38;;;;;;;38.22;24.77;;;;;;;;;;5059570;28;20532;-71
2020/12/05 03:56:04;;;;;;;42.00;27.87;;;;;;;;;;5059543;28;20154;-71
2020/12/05 03:58:29;;;;;;;37.53;24.93;;;;;;;;;;5059135;28;20244;-72
2020/12/05 04:00:54;;;;;;;36.63;26.10;;;;;;;;;;5059048;28;20256;-71
2020/12/05 04:03:19;;;;;;;36.88;25.58;;;;;;;;;;5059472;28;20571;-71
2020/12/05 04:05:44;;;;;;;40.60;24.93;;;;;;;;;;5059153;28;20172;-71
2020/12/05 04:08:10;;;;;;;41.50;27.70;;;;;;;;;;5058718;28;20213;-71
2020/12/05 04:10:36;;;;;;;36.83;26.00;;;;;;;;;;5059468;28;20553;-72
2020/12/05 04:13:01;;;;;;;35.67;24.23;;;;;;;;;;5058966;28;20566;-70
2020/12/05 04:15:27;;;;;;;41.33;27.77;;;;;;;;;;5058832;28;20392;-71
2020/12/05 04:17:52;;;;;;;41.37;27.07;;;;;;;;;;5059111;28;20181;-71
2020/12/05 04:20:17;;;;;;;41.22;28.20;;;;;;;;;;5058943;28;20511;-72
2020/12/05 04:22:42;;;;;;;43.07;27.33;;;;;;;;;;5058451;28;20162;-71
2020/12/05 04:25:07;;;;;;;39.78;27.60;;;;;;;;;;5059108;28;20200;-70
2020/12/05 04:27:33;;;;;;;40.40;28.57;;;;;;;;;;5058417;28;20201;-71
2020/12/05 04:29:58;;;;;;;40.67;28.23;;;;;;;;;;5058638;28;20587;-72
2020/12/05 04:32:23;;;;;;;40.00;27.33;;;;;;;;;;5059232;28;20158;-72
2020/12/05 04:34:48;;;;;;;37.77;27.30;;;;;;;;;;5058565;28;20180;-71
2020/12/05 04:37:13;;;;;;;37.53;26.60;;;;;;;;;;5058342;28;20185;-71
2020/12/05 04:39:38;;;;;;;38.57;27.50;;;;;;;;;;5058693;28;20496;-71
2020/12/05 04:42:04;;;;;;;38.50;27.50;;;;;;;;;;5058531;28;20162;-71
2020/12/05 04:44:29;;;;;;;36.53;25.00;;;;;;;;;;5058427;28;20295;-71
2020/12/05 04:46:55;;;;;;;41.67;26.73;;;;;;;;;;5058097;28;20228;-71
2020/12/05 04:49:22;;;;;;;39.37;26.20;;;;;;;;;;5058463;28;20188;-71
2020/12/05 04:51:52;;;;;;;37.43;26.37;;;;;;;;;;5059660;28;20419;-70
2020/12/05 04:54:23;;;;;;;39.40;28.17;;;;;;;;;;5058533;28;20443;-70
2020/12/05 04:56:50;;;;;;;38.67;27.37;;;;;;;;;;5057872;28;20670;-72
2020/12/05 04:59:15;;;;;;;37.57;25.97;;;;;;;;;;5057825;28;20483;-71
2020/12/05 05:01:40;;;;;;;43.65;28.13;;;;;;;;;;5057948;28;20722;-72
2020/12/05 05:04:05;;;;;;;36.10;25.70;;;;;;;;;;5058263;28;20170;-71
2020/12/05 05:06:31;;;;;;;38.77;27.10;;;;;;;;;;5057722;28;20205;-71
2020/12/05 05:08:56;;;;;;;40.10;27.57;;;;;;;;;;5058005;28;20198;-71
2020/12/05 05:11:23;;;;;;;41.03;27.77;;;;;;;;;;5058388;28;20162;-72
2020/12/05 05:13:58;;;;;;;40.33;28.67;;;;;;;;;;5057285;28;20196;-71
2020/12/05 05:16:26;;;;;;;42.40;27.30;;;;;;;;;;5057630;28;20407;-71
2020/12/05 05:18:51;;;;;;;39.40;26.60;;;;;;;;;;5057751;28;20507;-71
2020/12/05 05:21:36;;;;;;;38.17;26.93;;;;;;;;;;5057872;28;20490;-71
2020/12/05 05:24:09;;;;;;;38.27;25.80;;;;;;;;;;5057685;28;20181;-72
2020/12/05 05:26:34;;;;;;;37.57;26.77;;;;;;;;;;5057509;28;20443;-71
2020/12/05 05:29:00;;;;;;;40.63;27.53;;;;;;;;;;5057579;28;20491;-71
2020/12/05 05:31:31;;;;;;;39.43;27.00;;;;;;;;;;5057647;28;20531;-71
2020/12/05 05:33:56;;;;;;;37.87;25.40;;;;;;;;;;5057919;28;20245;-71
2020/12/05 05:36:26;;;;;;;40.97;27.97;;;;;;;;;;5057379;28;20489;-72
2020/12/05 05:39:04;;;;;;;38.73;27.53;;;;;;;;;;5057560;28;20221;-71
2020/12/05 05:41:30;;;;;;;35.97;27.57;;;;;;;;;;5057418;28;20806;-71
2020/12/05 05:44:02;;;;;;;37.77;26.73;;;;;;;;;;5057418;28;20400;-72
2020/12/05 05:46:30;;;;;;;40.53;28.10;;;;;;;;;;5057152;28;20472;-71
2020/12/05 05:48:55;;;;;;;40.47;27.70;;;;;;;;;;5057397;28;20462;-71
2020/12/05 05:51:39;;;;;;;38.43;26.80;;;;;;;;;;5057704;28;20487;-71
2020/12/05 05:54:21;;;;;;;37.30;26.80;;;;;;;;;;5057261;28;20168;-71
2020/12/05 05:56:57;;;;;;;41.80;27.93;;;;;;;;;;5057136;28;20826;-71
2020/12/05 05:59:23;;;;;;;39.13;26.90;;;;;;;;;;5057573;28;20793;-72
2020/12/05 06:01:49;;;;;;;41.47;27.33;;;;;;;;;;5056926;28;20401;-71
2020/12/05 06:04:21;;;;;;;41.37;28.90;;;;;;;;;;5057138;28;20244;-70
2020/12/05 06:06:47;;;;;;;40.00;27.90;;;;;;;;;;5056941;28;20272;-70
2020/12/05 06:09:13;;;;;;;36.20;24.80;;;;;;;;;;5057824;28;20475;-72
2020/12/05 06:11:39;;;;;;;36.03;26.70;;;;;;;;;;5057223;28;20525;-70
2020/12/05 06:14:05;;;;;;;40.00;28.07;;;;;;;;;;5057059;28;20817;-71
2020/12/05 06:16:31;;;;;;;37.80;26.70;;;;;;;;;;5057299;28;20165;-72
2020/12/05 06:18:57;;;;;;;33.53;24.07;;;;;;;;;;5057028;28;20412;-70
2020/12/05 06:21:28;;;;;;;38.90;27.67;;;;;;;;;;5056832;28;20450;-70
2020/12/05 06:23:54;;;;;;;42.10;28.30;;;;;;;;;;5057873;28;20408;-71
2020/12/05 06:26:30;;;;;;;38.27;27.17;;;;;;;;;;5060685;28;20445;-71
2020/12/05 06:28:56;;;;;;;42.80;28.87;;;;;;;;;;5060843;28;20227;-71
2020/12/05 06:31:40;;;;;;;35.77;26.83;;;;;;;;;;5060919;28;20407;-70
2020/12/05 06:34:05;;;;;;;41.30;28.10;;;;;;;;;;5060675;28;20399;-71
2020/12/05 06:36:31;;;;;;;38.20;27.00;;;;;;;;;;5060631;28;20465;-71
2020/12/05 06:39:05;;;;;;;38.30;28.20;;;;;;;;;;5060775;28;20186;-71
2020/12/05 06:41:31;;;;;;;37.40;27.33;;;;;;;;;;5061312;28;20547;-72
2020/12/05 06:44:15;;;;;;;38.60;27.60;;;;;;;;;;5061552;28;20400;-72
2020/12/05 06:46:47;;;;;;;34.97;26.00;;;;;;;;;;5061841;28;20459;-71
2020/12/05 06:49:32;;;;;;;36.07;26.70;;;;;;;;;;5060942;28;20419;-71
2020/12/05 06:52:17;;;;;;;42.10;27.37;;;;;;;;;;5060644;28;20810;-71
2020/12/05 06:54:49;;;;;;;35.37;24.67;;;;;;;;;;5060476;28;20477;-72
2020/12/05 06:57:14;;;;;;;41.63;29.53;;;;;;;;;;5060329;28;20404;-73
2020/12/05 06:59:39;;;;;;;40.03;27.67;;;;;;;;;;5060348;28;20396;-71
2020/12/05 07:02:24;;;;;;;38.07;26.83;;;;;;;;;;5060374;28;20175;-71
2020/12/05 07:04:50;;;;;;;38.53;27.30;;;;;;;;;;5060212;28;20161;-70
2020/12/05 07:07:30;;;;;;;41.73;29.53;;;;;;;;;;5060433;28;20436;-71
2020/12/05 07:09:56;;;;;;;40.90;27.70;;;;;;;;;;5060283;28;20193;-72
2020/12/05 07:12:21;;;;;;;40.53;28.47;;;;;;;;;;5060122;28;20443;-70
2020/12/05 07:14:46;;;;;;;39.57;26.93;;;;;;;;;;5060225;28;20257;-71
2020/12/05 07:17:21;;;;;;;43.00;28.30;;;;;;;;;;5059810;28;20177;-71
2020/12/05 07:19:46;;;;;;;38.00;26.53;;;;;;;;;;5060216;28;20468;-71
2020/12/05 07:22:11;;;;;;;43.07;29.63;;;;;;;;;;5060424;28;20392;-72
2020/12/05 07:24:36;;;;;;;41.17;27.37;;;;;;;;;;5060320;28;20215;-71
2020/12/05 07:27:02;;;;;;;39.97;29.02;;;;;;;;;;5059742;28;20421;-72
2020/12/05 07:29:27;;;;;;;36.57;24.13;;;;;;;;;;5060213;28;20164;-71
2020/12/05 07:31:53;;;;;;;37.78;27.45;;;;;;;;;;5059690;28;20166;-70
2020/12/05 07:34:21;;;;;;;44.43;29.83;;;;;;;;;;5059706;28;20252;-72
2020/12/05 07:36:46;;;;;;;39.97;28.00;;;;;;;;;;5059261;28;20822;-71
2020/12/05 07:39:11;;;;;;;38.40;27.23;;;;;;;;;;5059556;28;20396;-70
2020/12/05 07:41:36;;;;;;;40.40;27.27;;;;;;;;;;5059743;28;20434;-70
2020/12/05 07:44:01;;;;;;;42.60;28.30;;;;;;;;;;5059799;28;20176;-75
2020/12/05 07:46:28;;;;;;;42.30;28.60;;;;;;;;;;5059155;28;20231;-69
2020/12/05 07:48:53;;;;;;;43.67;28.60;;;;;;;;;;5059479;28;20580;-70
2020/12/05 07:51:18;;;;;;;38.10;26.37;;;;;;;;;;5059868;28;20868;-71
2020/12/05 07:53:44;;;;;;;43.63;28.50;;;;;;;;;;5059618;28;20616;-71
2020/12/05 07:56:15;;;;;;;42.10;27.47;;;;;;;;;;5059310;28;20178;-71
2020/12/05 07:58:47;;;;;;;43.87;29.20;;;;;;;;;;5059771;28;20189;-70
2020/12/05 08:01:38;;;;;;;40.17;26.70;;;;;;;;;;5059600;28;20407;-72
2020/12/05 08:04:22;;;;;;;37.13;27.07;;;;;;;;;;5059206;28;20411;-72
2020/12/05 08:07:01;;;;;;;38.70;26.20;;;;;;;;;;5058974;28;20426;-71
2020/12/05 08:09:31;;;;;;;38.07;27.17;;;;;;;;;;5059053;28;20487;-71
2020/12/05 08:11:57;;;;;;;35.60;26.60;;;;;;;;;;5059084;28;20400;-70
2020/12/05 08:14:22;;;;;;;43.67;29.07;;;;;;;;;;5059119;28;20700;-71
2020/12/05 08:16:48;;;;;;;42.67;30.73;;;;;;;;;;5059349;28;20158;-71
2020/12/05 08:19:13;;;;;;;44.00;30.83;;;;;;;;;;5059011;28;20438;-72
2020/12/05 08:21:38;;;;;;;39.07;27.73;;;;;;;;;;5059022;28;20176;-71
2020/12/05 08:24:07;;;;;;;42.27;30.03;;;;;;;;;;5059165;28;20495;-72
2020/12/05 08:26:33;;;;;;;41.60;28.73;;;;;;;;;;5058627;28;20158;-71
2020/12/05 08:28:59;;;;;;;45.77;29.50;;;;;;;;;;5058634;28;20857;-71
2020/12/05 08:31:25;;;;;;;40.37;28.50;;;;;;;;;;5059252;28;20217;-72
2020/12/05 08:33:50;;;;;;;37.80;25.33;;;;;;;;;;5072071;28;20458;-70
2020/12/05 08:36:19;;;;;;;41.27;28.97;;;;;;;;;;5079756;28;20480;-70
2020/12/05 08:38:45;;;;;;;39.30;28.13;;;;;;;;;;5097881;28;20573;-70
2020/12/05 08:41:10;;;;;;;44.80;29.10;;;;;;;;;;5099006;28;20417;-71
2020/12/05 08:43:35;;;;;;;39.50;27.00;;;;;;;;;;5098756;28;20172;-71
2020/12/05 08:46:00;;;;;;;39.57;27.07;;;;;;;;;;5098502;28;20156;-70
2020/12/05 08:48:26;;;;;;;44.50;29.27;;;;;;;;;;5097678;28;20196;-71
2020/12/05 08:50:51;;;;;;;41.30;28.47;;;;;;;;;;5097882;28;20172;-71
2020/12/05 08:53:19;;;;;;;40.03;30.20;;;;;;;;;;5098820;28;20425;-70
2020/12/05 08:55:46;;;;;;;40.00;27.40;;;;;;;;;;5098697;28;20157;-72
2020/12/05 08:58:11;;;;;;;41.53;28.17;;;;;;;;;;5100937;28;20489;-71
2020/12/05 09:00:37;;;;;;;45.30;29.83;;;;;;;;;;5101927;28;20418;-70
2020/12/05 09:03:03;;;;;;;40.67;29.20;;;;;;;;;;5098570;28;20156;-71
2020/12/05 09:05:28;;;;;;;41.07;27.73;;;;;;;;;;5099005;28;20161;-69
2020/12/05 09:07:55;;;;;;;44.53;29.47;;;;;;;;;;5098309;28;20463;-70
2020/12/05 09:10:20;;;;;;;42.37;27.50;;;;;;;;;;5089409;28;20269;-70
2020/12/05 09:12:45;;;;;;;42.40;29.50;;;;;;;;;;5078341;28;20773;-71
2020/12/05 09:15:10;;;;;;;45.50;31.17;;;;;;;;;;5074320;28;20230;-70
2020/12/05 09:17:36;;;;;;;43.43;29.20;;;;;;;;;;5069095;28;20197;-71
2020/12/05 09:20:18;;;;;;;40.33;29.30;;;;;;;;;;5070332;28;20202;-70
2020/12/05 09:22:47;;;;;;;39.53;27.10;;;;;;;;;;5062868;28;20165;-70
2020/12/05 09:25:23;;;;;;;41.53;28.40;;;;;;;;;;5058333;28;20426;-71
2020/12/05 09:27:48;;;;;;;40.87;28.37;;;;;;;;;;5057719;28;20459;-70
2020/12/05 09:30:13;;;;;;;36.63;26.90;;;;;;;;;;5061395;28;20418;-70
2020/12/05 09:32:41;;;;;;;43.30;29.17;;;;;;;;;;5077890;28;20214;-70
2020/12/05 09:35:07;;;;;;;40.70;27.73;;;;;;;;;;5077638;28;20480;-70
2020/12/05 09:37:32;;;;;;;38.60;27.90;;;;;;;;;;5077210;28;20428;-71
2020/12/05 09:39:57;;;;;;;43.50;29.50;;;;;;;;;;5074972;28;20181;-71
2020/12/05 09:42:23;;;;;;;41.90;28.80;;;;;;;;;;5065890;28;20176;-71
2020/12/05 09:44:48;;;;;;;45.00;29.10;;;;;;;;;;5067060;28;20153;-72
2020/12/05 09:47:13;;;;;;;44.60;29.13;;;;;;;;;;5065175;28;20236;-71
2020/12/05 09:49:39;;;;;;;42.87;29.53;;;;;;;;;;5066333;28;20222;-72
2020/12/05 09:52:05;;;;;;;35.27;27.90;;;;;;;;;;5064992;28;20594;-71
2020/12/05 09:54:30;;;;;;;43.60;29.30;;;;;;;;;;5064954;28;20401;-71
2020/12/05 09:56:55;;;;;;;39.83;28.80;;;;;;;;;;5064941;28;20173;-72
2020/12/05 09:59:20;;;;;;;43.70;31.05;;;;;;;;;;5068131;28;20157;-71
2020/12/05 10:01:45;;;;;;;39.55;27.77;;;;;;;;;;5068269;28;20181;-72
2020/12/05 10:04:14;;;;;;;46.65;29.48;;;;;;;;;;5067687;28;20595;-71
2020/12/05 10:06:39;;;;;;;39.23;28.90;;;;;;;;;;5063425;28;20473;-72
2020/12/05 10:09:04;;;;;;;41.88;30.05;;;;;;;;;;5068220;28;20538;-72
2020/12/05 10:11:29;;;;;;;37.07;26.53;;;;;;;;;;5069761;28;20667;-73
2020/12/05 10:13:54;;;;;;;41.40;27.87;;;;;;;;;;5059316;28;20265;-72
2020/12/05 10:16:20;;;;;;;39.70;27.50;;;;;;;;;;5064866;28;20239;-72
2020/12/05 10:18:45;;;;;;;44.35;28.83;;;;;;;;;;5067693;28;20235;-72
2020/12/05 10:21:10;;;;;;;36.27;27.10;;;;;;;;;;5066315;28;20184;-71
2020/12/05 10:23:35;;;;;;;44.40;28.60;;;;;;;;;;5063550;28;20173;-72
2020/12/05 10:26:01;;;;;;;39.17;28.83;;;;;;;;;;5071014;28;20247;-74
2020/12/05 10:28:26;;;;;;;39.77;26.30;;;;;;;;;;5069159;28;20196;-72
2020/12/05 10:30:51;;;;;;;39.63;27.93;;;;;;;;;;5070868;28;20161;-72
2020/12/05 10:33:16;;;;;;;38.43;26.90;;;;;;;;;;5093615;28;20180;-71
2020/12/05 10:35:41;;;;;;;40.33;28.00;;;;;;;;;;5081877;28;20231;-73
2020/12/05 10:38:06;;;;;;;38.33;27.33;;;;;;;;;;5080664;28;20642;-73
2020/12/05 10:40:32;;;;;;;35.45;25.95;;;;;;;;;;5088690;28;20164;-73
2020/12/05 10:42:57;;;;;;;37.00;26.83;;;;;;;;;;5075232;28;20482;-72
2020/12/05 10:45:22;;;;;;;34.43;24.70;;;;;;;;;;5072150;28;20182;-72
2020/12/05 10:47:47;;;;;;;32.03;24.10;;;;;;;;;;5072115;28;20325;-73
2020/12/05 10:50:12;;;;;;;34.30;24.75;;;;;;;;;;5070084;28;20162;-73
2020/12/05 10:52:37;;;;;;;35.27;25.23;;;;;;;;;;5073861;28;20165;-73
2020/12/05 10:55:03;;;;;;;33.92;23.70;;;;;;;;;;5070499;28;20185;-73
2020/12/05 10:57:28;;;;;;;31.90;23.57;;;;;;;;;;5069942;28;20170;-74
2020/12/05 10:59:54;;;;;;;34.08;25.00;;;;;;;;;;5066968;28;20597;-70
2020/12/05 11:02:19;;;;;;;33.33;22.80;;;;;;;;;;5071650;28;20169;-70
2020/12/05 11:04:44;;;;;;;31.60;23.80;;;;;;;;;;5067687;28;20407;-69
2020/12/05 11:07:10;;;;;;;32.47;25.20;;;;;;;;;;5069367;28;20181;-70
2020/12/05 11:09:35;;;;;;;30.03;22.63;;;;;;;;;;5067134;28;20165;-71
2020/12/05 11:12:00;;;;;;;30.27;22.90;;;;;;;;;;5068695;28;20174;-72
2020/12/05 11:14:25;;;;;;;33.10;22.33;;;;;;;;;;5069693;28;20177;-69
2020/12/05 11:16:50;;;;;;;31.00;23.90;;;;;;;;;;5070162;28;20169;-72
2020/12/05 11:19:16;;;;;;;32.50;22.93;;;;;;;;;;5069377;28;20162;-74
2020/12/05 11:21:45;;;;;;;29.30;21.67;;;;;;;;;;5069503;28;20198;-71
2020/12/05 11:24:10;;;;;;;30.10;22.10;;;;;;;;;;5072515;28;20184;-69
2020/12/05 11:26:35;;;;;;;29.43;22.50;;;;;;;;;;5067726;28;20401;-70
2020/12/05 11:29:00;;;;;;;28.40;21.67;;;;;;;;;;5069859;28;20219;-75
2020/12/05 11:31:25;;;;;;;24.07;19.93;;;;;;;;;;5069862;28;20175;-71
2020/12/05 11:33:51;;;;;;;29.25;22.08;;;;;;;;;;5066555;28;20462;-72
2020/12/05 11:36:16;;;;;;;26.80;19.20;;;;;;;;;;5088629;28;20173;-72
2020/12/05 11:38:41;;;;;;;25.60;19.43;;;;;;;;;;5086922;28;20280;-71
2020/12/05 11:41:06;;;;;;;25.17;19.50;;;;;;;;;;5096103;28;20193;-71
2020/12/05 11:43:32;;;;;;;25.77;20.27;;;;;;;;;;5082968;28;20165;-72
2020/12/05 11:45:57;;;;;;;25.60;19.70;;;;;;;;;;5089201;28;20255;-71
2020/12/05 11:48:22;;;;;;;24.47;19.43;;;;;;;;;;5089173;28;20204;-70
2020/12/05 11:50:47;;;;;;;28.40;20.20;;;;;;;;;;5093111;28;20165;-71
2020/12/05 11:53:12;;;;;;;26.30;20.50;;;;;;;;;;5073648;28;20161;-70
2020/12/05 11:55:37;;;;;;;23.60;19.87;;;;;;;;;;5083413;28;20160;-71
2020/12/05 11:58:03;;;;;;;23.63;19.52;;;;;;;;;;5091851;28;20169;-72
2020/12/05 12:00:28;;;;;;;23.23;18.80;;;;;;;;;;5090149;28;20172;-71
2020/12/05 12:02:53;;;;;;;23.97;18.43;;;;;;;;;;5084776;28;20169;-72
2020/12/05 12:05:19;;;;;;;21.50;17.40;;;;;;;;;;5095756;28;20176;-71
2020/12/05 12:07:44;;;;;;;22.00;18.10;;;;;;;;;;5083677;28;20561;-70
2020/12/05 12:10:09;;;;;;;22.77;18.57;;;;;;;;;;5090943;28;20192;-72
2020/12/05 12:12:35;;;;;;;24.30;18.57;;;;;;;;;;5090520;28;20180;-71
2020/12/05 12:15:00;;;;;;;24.80;20.50;;;;;;;;;;5096496;28;20432;-70
2020/12/05 12:17:25;;;;;;;19.48;15.73;;;;;;;;;;5075402;28;20169;-70
2020/12/05 12:19:50;;;;;;;23.20;18.40;;;;;;;;;;5077635;28;20173;-70
2020/12/05 12:22:16;;;;;;;21.15;16.40;;;;;;;;;;5086600;28;20240;-70
2020/12/05 12:24:41;;;;;;;22.50;17.13;;;;;;;;;;5078683;28;20179;-69
2020/12/05 12:27:06;;;;;;;22.77;19.08;;;;;;;;;;5078376;28;20172;-69
2020/12/05 12:29:31;;;;;;;23.05;17.80;;;;;;;;;;5083717;28;20542;-71
2020/12/05 12:31:56;;;;;;;22.27;17.67;;;;;;;;;;5092283;28;20204;-71
2020/12/05 12:34:21;;;;;;;21.53;17.87;;;;;;;;;;5088347;28;20176;-72
2020/12/05 12:36:49;;;;;;;24.27;17.40;;;;;;;;;;5084663;28;20165;-70
2020/12/05 12:39:14;;;;;;;22.40;17.30;;;;;;;;;;5079120;28;20165;-71
2020/12/05 12:41:40;;;;;;;23.07;18.60;;;;;;;;;;5094044;28;20418;-71
2020/12/05 12:44:05;;;;;;;24.92;19.00;;;;;;;;;;5084661;28;20553;-68
2020/12/05 12:46:32;;;;;;;23.50;18.00;;;;;;;;;;5085586;28;20225;-70
2020/12/05 12:48:57;;;;;;;23.90;18.60;;;;;;;;;;5092150;28;20204;-68
2020/12/05 12:51:24;;;;;;;21.63;16.40;;;;;;;;;;5080867;28;20716;-71
2020/12/05 12:53:49;;;;;;;24.73;19.03;;;;;;;;;;5096621;28;20190;-72
2020/12/05 12:56:21;;;;;;;23.80;18.67;;;;;;;;;;5087508;28;20410;-69
2020/12/05 12:58:47;;;;;;;20.87;17.30;;;;;;;;;;5090194;28;20160;-70
2020/12/05 13:01:16;;;;;;;23.23;17.67;;;;;;;;;;5080392;28;20465;-70
2020/12/05 13:03:42;;;;;;;22.03;18.67;;;;;;;;;;5090448;28;20732;-69
2020/12/05 13:06:12;;;;;;;23.67;19.07;;;;;;;;;;5089061;28;20442;-72
2020/12/05 13:08:37;;;;;;;23.00;18.60;;;;;;;;;;5088356;28;20227;-71
2020/12/05 13:11:02;;;;;;;26.83;19.05;;;;;;;;;;5081055;28;20500;-71
2020/12/05 13:13:28;;;;;;;28.20;19.47;;;;;;;;;;5096211;28;20164;-71
2020/12/05 13:15:53;;;;;;;26.57;19.73;;;;;;;;;;5090723;28;20180;-70
2020/12/05 13:18:18;;;;;;;24.03;19.10;;;;;;;;;;5079097;28;20181;-71
2020/12/05 13:20:43;;;;;;;27.13;19.43;;;;;;;;;;5071591;28;20205;-69
2020/12/05 13:23:08;;;;;;;25.80;18.90;;;;;;;;;;5076057;28;20490;-69
2020/12/05 13:25:34;;;;;;;29.00;19.63;;;;;;;;;;5094329;28;20157;-69
2020/12/05 13:27:59;;;;;;;26.42;19.92;;;;;;;;;;5077686;28;20243;-71
2020/12/05 13:30:24;;;;;;;26.77;19.90;;;;;;;;;;5088467;28;20250;-70
2020/12/05 13:32:49;;;;;;;26.60;19.90;;;;;;;;;;5083347;28;20454;-70
2020/12/05 13:35:14;;;;;;;25.17;19.50;;;;;;;;;;5092114;28;20202;-70
2020/12/05 13:37:39;;;;;;;25.03;18.80;;;;;;;;;;5075661;28;20604;-72
2020/12/05 13:40:05;;;;;;;23.63;18.70;;;;;;;;;;5076616;28;20265;-72
2020/12/05 13:42:30;;;;;;;28.40;18.23;;;;;;;;;;5076976;28;20176;-72
2020/12/05 13:44:55;;;;;;;25.60;18.23;;;;;;;;;;5076924;28;20175;-72
2020/12/05 13:47:20;;;;;;;27.10;20.73;;;;;;;;;;5076765;28;20312;-72
2020/12/05 13:49:45;;;;;;;24.10;18.50;;;;;;;;;;5076117;28;20474;-69
2020/12/05 13:52:10;;;;;;;22.73;17.50;;;;;;;;;;5074901;28;20200;-71
2020/12/05 13:54:36;;;;;;;23.83;18.87;;;;;;;;;;5077111;28;20179;-70
2020/12/05 13:57:01;;;;;;;24.17;19.37;;;;;;;;;;5077255;28;20226;-70
2020/12/05 13:59:26;;;;;;;21.33;17.30;;;;;;;;;;5077289;28;20215;-71
2020/12/05 14:01:52;;;;;;;24.87;19.40;;;;;;;;;;5077505;28;20210;-72
2020/12/05 14:04:18;;;;;;;22.07;18.40;;;;;;;;;;5077708;28;20165;-71
2020/12/05 14:06:44;;;;;;;24.23;18.00;;;;;;;;;;5077124;28;20800;-72
2020/12/05 14:09:09;;;;;;;24.30;18.50;;;;;;;;;;5077059;28;20291;-72
2020/12/05 14:11:35;;;;;;;22.17;17.50;;;;;;;;;;5077533;28;20494;-72